createdAt,value
2023-02-06T00:01:36.371Z,101516.19
2023-02-06T00:04:04.705Z,101517.13
2023-02-06T00:06:41.800Z,101514.20
2023-02-06T00:09:10.271Z,101507.86
2023-02-06T00:11:41.726Z,101508.82
2023-02-06T00:14:09.789Z,101511.45
2023-02-06T00:16:57.681Z,101508.58
2023-02-06T00:19:26.839Z,101511.12
2023-02-06T00:21:55.490Z,101506.77
2023-02-06T00:24:23.558Z,101507.05
2023-02-06T00:26:51.760Z,101513.95
2023-02-06T00:29:19.740Z,101513.25
2023-02-06T00:31:48.966Z,101514.56
2023-02-06T00:34:16.974Z,101515.73
2023-02-06T00:36:45.382Z,101514.48
2023-02-06T00:39:13.454Z,101513.52
2023-02-06T00:41:41.920Z,101512.20
2023-02-06T00:44:10.005Z,101511.76
2023-02-06T00:46:38.161Z,101509.92
2023-02-06T00:49:07.074Z,101509.10
2023-02-06T00:51:38.886Z,101505.81
2023-02-06T00:54:07.424Z,101510.84
2023-02-06T00:56:36.207Z,101507.40
2023-02-06T00:59:04.275Z,101506.77
2023-02-06T01:01:34.238Z,101507.01
2023-02-06T01:04:02.565Z,101510.16
2023-02-06T01:06:51.500Z,101510.20
2023-02-06T01:09:19.599Z,101510.58
2023-02-06T01:11:47.571Z,101508.65
2023-02-06T01:14:16.149Z,101510.23
2023-02-06T01:16:44.611Z,101511.52
2023-02-06T01:19:12.931Z,101507.80
2023-02-06T01:21:41.197Z,101506.69
2023-02-06T01:24:09.460Z,101503.08
2023-02-06T01:26:38.861Z,101516.16
2023-02-06T01:29:07.181Z,101514.85
2023-02-06T01:31:36.266Z,101509.15
2023-02-06T01:34:07.680Z,101505.61
2023-02-06T01:36:38.646Z,101513.58
2023-02-06T01:39:07.265Z,101512.42
2023-02-06T01:41:35.724Z,101512.01
2023-02-06T01:44:07.142Z,101511.89
2023-02-06T01:46:36.665Z,101514.98
2023-02-06T01:49:06.964Z,101516.68
2023-02-06T01:51:35.438Z,101515.13
2023-02-06T01:54:04.837Z,101516.64
2023-02-06T01:56:37.045Z,101517.91
2023-02-06T01:59:05.602Z,101520.11
2023-02-06T02:01:33.742Z,101519.27
2023-02-06T02:04:06.678Z,101522.92
2023-02-06T02:06:35.265Z,101528.64
2023-02-06T02:09:03.859Z,101530.25
2023-02-06T02:11:36.708Z,101533.70
2023-02-06T02:14:10.196Z,101535.36
2023-02-06T02:16:49.886Z,101536.98
2023-02-06T02:19:40.366Z,101546.75
2023-02-06T02:22:20.756Z,101546.00
2023-02-06T02:25:22.284Z,101543.87
2023-02-06T02:27:59.991Z,101548.17
2023-02-06T02:30:37.367Z,101553.84
2023-02-06T02:33:46.043Z,101548.88
2023-02-06T02:36:21.611Z,101551.90
2023-02-06T02:39:04.975Z,101554.88
2023-02-06T02:41:39.097Z,101551.21
2023-02-06T02:47:21.629Z,101556.09
2023-02-06T02:49:50.381Z,101560.59
2023-02-06T02:52:19.048Z,101561.98
2023-02-06T02:54:47.139Z,101559.91
2023-02-06T02:57:18.918Z,101557.16
2023-02-06T02:59:47.374Z,101553.31
2023-02-06T03:02:36.653Z,101555.39
2023-02-06T03:05:09.735Z,101558.02
2023-02-06T03:08:01.677Z,101558.70
2023-02-06T03:10:52.785Z,101560.48
2023-02-06T03:13:29.352Z,101562.74
2023-02-06T03:16:19.952Z,101565.69
2023-02-06T03:18:54.782Z,101570.39
2023-02-06T03:21:22.690Z,101569.84
2023-02-06T03:23:53.126Z,101569.18
2023-02-06T03:26:23.179Z,101566.73
2023-02-06T03:28:53.169Z,101570.58
2023-02-06T03:31:25.877Z,101573.52
2023-02-06T03:34:02.018Z,101569.19
2023-02-06T03:36:30.139Z,101572.67
2023-02-06T03:38:58.099Z,101575.33
2023-02-06T03:41:29.601Z,101577.86
2023-02-06T03:43:57.609Z,101577.27
2023-02-06T03:46:26.043Z,101577.94
2023-02-06T03:48:55.090Z,101582.41
2023-02-06T03:51:31.568Z,101581.05
2023-02-06T03:54:00.013Z,101581.91
2023-02-06T03:56:32.723Z,101587.60
2023-02-06T03:59:00.895Z,101582.83
2023-02-06T04:01:29.295Z,101583.91
2023-02-06T04:03:57.723Z,101585.17
2023-02-06T04:06:25.824Z,101585.54
2023-02-06T04:08:54.181Z,101586.08
2023-02-06T04:11:22.378Z,101587.12
2023-02-06T04:13:51.269Z,101588.50
2023-02-06T04:16:19.274Z,101590.08
2023-02-06T04:18:47.416Z,101592.54
2023-02-06T04:21:15.416Z,101596.60
2023-02-06T04:23:43.729Z,101597.48
2023-02-06T04:26:12.550Z,101596.09
2023-02-06T04:28:40.877Z,101599.41
2023-02-06T04:31:09.154Z,101600.63
2023-02-06T04:33:37.524Z,101600.61
2023-02-06T04:36:07.551Z,101604.60
2023-02-06T04:38:37.114Z,101611.36
2023-02-06T04:41:06.124Z,101612.21
2023-02-06T04:43:34.860Z,101612.27
2023-02-06T04:46:03.349Z,101613.31
2023-02-06T04:48:31.475Z,101611.58
2023-02-06T04:50:59.435Z,101607.39
2023-02-06T04:53:27.526Z,101610.36
2023-02-06T04:56:05.633Z,101611.59
2023-02-06T04:58:34.073Z,101615.15
2023-02-06T05:01:44.309Z,101620.41
2023-02-06T05:04:12.436Z,101616.48
2023-02-06T05:06:41.839Z,101617.71
2023-02-06T05:09:10.018Z,101617.63
2023-02-06T05:11:37.988Z,101617.45
2023-02-06T05:14:06.068Z,101616.02
2023-02-06T05:16:34.076Z,101618.64
2023-02-06T05:19:02.072Z,101619.57
2023-02-06T05:21:30.290Z,101618.16
2023-02-06T05:23:58.546Z,101622.64
2023-02-06T05:26:26.832Z,101620.16
2023-02-06T05:28:56.082Z,101621.40
2023-02-06T05:31:24.445Z,101627.00
2023-02-06T05:33:52.922Z,101628.69
2023-02-06T05:36:21.624Z,101628.30
2023-02-06T05:38:49.958Z,101630.73
2023-02-06T05:41:18.076Z,101632.17
2023-02-06T05:43:46.783Z,101629.42
2023-02-06T05:46:15.169Z,101627.55
2023-02-06T05:48:43.373Z,101625.55
2023-02-06T05:51:11.370Z,101629.89
2023-02-06T05:53:39.569Z,101629.21
2023-02-06T05:56:07.581Z,101632.79
2023-02-06T05:58:36.233Z,101636.30
2023-02-06T06:01:04.372Z,101635.42
2023-02-06T06:03:33.484Z,101635.95
2023-02-06T06:06:01.762Z,101637.89
2023-02-06T06:08:29.866Z,101637.36
2023-02-06T06:10:58.220Z,101637.10
2023-02-06T06:13:26.697Z,101638.84
2023-02-06T06:15:55.482Z,101635.54
2023-02-06T06:18:23.684Z,101631.88
2023-02-06T06:20:51.705Z,101629.24
2023-02-06T06:23:20.998Z,101629.38
2023-02-06T06:25:49.384Z,101630.69
2023-02-06T06:28:18.278Z,101629.73
2023-02-06T06:30:46.541Z,101628.72
2023-02-06T06:33:16.487Z,101631.80
2023-02-06T06:35:44.591Z,101630.56
2023-02-06T06:38:12.729Z,101636.77
2023-02-06T06:40:41.090Z,101636.38
2023-02-06T06:43:09.305Z,101631.77
2023-02-06T06:45:37.595Z,101636.66
2023-02-06T06:48:05.901Z,101643.26
2023-02-06T06:50:33.980Z,101645.48
2023-02-06T06:53:02.678Z,101642.33
2023-02-06T06:55:30.742Z,101638.40
2023-02-06T06:57:59.561Z,101637.91
2023-02-06T07:00:27.695Z,101640.05
2023-02-06T07:02:55.936Z,101644.95
2023-02-06T07:05:23.916Z,101647.35
2023-02-06T07:07:52.079Z,101654.89
2023-02-06T07:10:20.335Z,101660.02
2023-02-06T07:12:48.512Z,101655.11
2023-02-06T07:15:16.566Z,101653.27
2023-02-06T07:17:45.172Z,101654.70
2023-02-06T07:20:13.333Z,101655.16
2023-02-06T07:22:41.337Z,101659.27
2023-02-06T07:25:09.345Z,101660.05
2023-02-06T07:27:37.365Z,101666.73
2023-02-06T07:30:06.661Z,101669.75
2023-02-06T07:32:36.700Z,101670.61
2023-02-06T07:35:05.750Z,101669.05
2023-02-06T07:37:34.448Z,101670.00
2023-02-06T07:40:02.755Z,101675.02
2023-02-06T07:42:32.810Z,101673.06
2023-02-06T07:45:06.111Z,101665.86
2023-02-06T07:47:34.438Z,101670.06
2023-02-06T07:50:04.734Z,101671.17
2023-02-06T07:52:33.050Z,101672.42
2023-02-06T07:55:01.287Z,101675.27
2023-02-06T07:57:29.459Z,101678.08
2023-02-06T07:59:57.413Z,101671.75
2023-02-06T08:02:25.534Z,101675.15
2023-02-06T08:04:53.675Z,101672.48
2023-02-06T08:07:22.052Z,101671.64
2023-02-06T08:09:50.140Z,101675.17
2023-02-06T08:12:18.231Z,101670.50
2023-02-06T08:14:47.748Z,101677.23
2023-02-06T08:17:17.118Z,101677.73
2023-02-06T08:19:46.384Z,101683.16
2023-02-06T08:22:14.391Z,101688.60
2023-02-06T08:24:42.516Z,101690.30
2023-02-06T08:27:10.515Z,101685.95
2023-02-06T08:29:42.522Z,101691.83
2023-02-06T08:32:10.784Z,101686.89
2023-02-06T08:34:39.791Z,101687.36
2023-02-06T08:37:08.330Z,101686.30
2023-02-06T08:39:36.489Z,101690.66
2023-02-06T08:42:04.555Z,101694.33
2023-02-06T08:44:32.732Z,101697.77
2023-02-06T08:47:09.551Z,101699.38
2023-02-06T08:49:38.464Z,101694.48
2023-02-06T08:52:06.346Z,101696.96
2023-02-06T08:54:36.353Z,101695.10
2023-02-06T08:57:06.923Z,101695.44
2023-02-06T08:59:35.038Z,101693.44
2023-02-06T09:02:03.146Z,101694.09
2023-02-06T09:04:32.221Z,101691.52
2023-02-06T09:07:00.678Z,101697.27
2023-02-06T09:09:29.086Z,101692.69
2023-02-06T09:12:03.636Z,101692.33
2023-02-06T09:14:31.938Z,101692.39
2023-02-06T09:17:00.137Z,101688.28
2023-02-06T09:19:28.493Z,101691.61
2023-02-06T09:21:56.847Z,101683.34
2023-02-06T09:24:25.594Z,101686.14
2023-02-06T09:26:59.806Z,101682.05
2023-02-06T09:29:29.593Z,101687.50
2023-02-06T09:31:57.819Z,101684.39
2023-02-06T09:34:26.382Z,101689.75
2023-02-06T09:36:56.675Z,101691.31
2023-02-06T09:39:25.277Z,101690.61
2023-02-06T09:41:55.410Z,101687.93
2023-02-06T11:10:57.579Z,101663.44
2023-02-06T11:13:30.089Z,101663.22
2023-02-06T11:16:03.444Z,101665.20
2023-02-06T11:18:43.506Z,101664.64
2023-02-06T11:21:13.087Z,101667.02
2023-02-06T11:23:42.317Z,101671.25
2023-02-06T11:26:15.165Z,101673.67
2023-02-06T11:28:57.286Z,101673.94
2023-02-06T11:31:50.362Z,101673.02
2023-02-06T11:34:27.629Z,101674.29
2023-02-06T11:37:32.419Z,101675.66
2023-02-06T11:40:19.072Z,101665.52
2023-02-06T11:43:06.803Z,101671.52
2023-02-06T11:45:35.421Z,101671.59
2023-02-06T11:48:06.034Z,101676.77
2023-02-06T11:50:35.939Z,101669.45
2023-02-06T11:53:09.264Z,101676.86
2023-02-06T11:55:39.622Z,101674.79
2023-02-06T11:58:14.069Z,101675.90
2023-02-06T12:00:51.971Z,101664.60
2023-02-06T12:03:35.508Z,101665.58
2023-02-06T12:06:10.134Z,101663.13
2023-02-06T12:08:52.238Z,101662.14
2023-02-06T12:11:26.761Z,101664.98
2023-02-06T12:13:58.616Z,101658.61
2023-02-06T12:16:26.888Z,101664.42
2023-02-06T12:18:57.584Z,101657.83
2023-02-06T12:21:38.244Z,101654.34
2023-02-06T12:24:28.679Z,101651.80
2023-02-06T12:26:58.802Z,101651.14
2023-02-06T12:29:40.437Z,101652.79
2023-02-06T12:32:15.335Z,101649.84
2023-02-06T12:34:49.652Z,101654.66
2023-02-06T12:37:39.953Z,101650.45
2023-02-06T12:40:27.153Z,101651.75
2023-02-06T12:43:09.629Z,101647.41
2023-02-06T12:45:46.357Z,101643.77
2023-02-06T12:48:29.564Z,101644.96
2023-02-06T12:51:12.607Z,101646.26
2023-02-06T12:53:48.296Z,101648.44
2023-02-06T12:56:19.436Z,101645.36
2023-02-06T12:58:51.292Z,101640.68
2023-02-06T13:01:51.599Z,101640.18
2023-02-06T13:04:30.782Z,101635.70
2023-02-06T13:07:07.362Z,101626.14
2023-02-06T13:10:00.136Z,101621.80
2023-02-06T13:12:31.692Z,101619.98
2023-02-06T13:15:02.588Z,101621.04
2023-02-06T13:17:42.594Z,101618.52
2023-02-06T13:20:13.544Z,101617.60
2023-02-06T13:22:47.326Z,101615.94
2023-02-06T13:25:30.884Z,101613.64
2023-02-06T13:28:22.686Z,101616.38
2023-02-06T13:31:04.085Z,101619.38
2023-02-06T13:33:43.797Z,101626.70
2023-02-06T13:36:25.445Z,101630.39
2023-02-06T13:38:57.149Z,101633.09
2023-02-06T13:41:30.992Z,101634.23
2023-02-06T13:44:06.813Z,101633.92
2023-02-06T13:47:12.676Z,101634.83
2023-02-06T13:50:24.013Z,101636.75
2023-02-06T13:53:02.772Z,101641.40
2023-02-06T13:55:34.043Z,101641.45
2023-02-06T13:58:20.972Z,101644.98
2023-02-06T14:00:50.543Z,101645.39
2023-02-06T14:03:32.772Z,101646.30
2023-02-06T14:06:24.271Z,101654.27
2023-02-06T14:09:00.551Z,101656.29
2023-02-06T14:11:58.028Z,101653.41
2023-02-06T14:14:48.353Z,101651.90
2023-02-06T14:17:38.657Z,101655.80
2023-02-06T14:20:29.350Z,101659.06
2023-02-06T14:23:31.472Z,101659.84
2023-02-06T14:26:22.672Z,101662.34
2023-02-06T14:29:12.403Z,101660.95
2023-02-06T14:31:59.375Z,101659.01
2023-02-06T14:34:30.681Z,101661.52
2023-02-06T14:37:20.712Z,101666.92
2023-02-06T14:39:56.953Z,101669.65
2023-02-06T14:42:30.892Z,101672.92
2023-02-06T14:45:01.889Z,101677.37
2023-02-06T14:47:33.002Z,101680.39
2023-02-06T14:50:01.030Z,101683.02
2023-02-06T14:52:29.809Z,101690.20
2023-02-06T14:54:57.989Z,101694.63
2023-02-06T14:57:30.653Z,101698.59
2023-02-06T15:00:01.114Z,101697.75
2023-02-06T15:02:34.019Z,101697.16
2023-02-06T15:05:02.441Z,101703.77
2023-02-06T15:07:33.393Z,101701.80
2023-02-06T15:10:10.604Z,101704.27
2023-02-06T15:12:38.852Z,101707.65
2023-02-06T15:15:23.903Z,101714.25
2023-02-06T15:17:58.948Z,101712.04
2023-02-06T15:20:45.557Z,101714.91
2023-02-06T15:23:18.695Z,101717.20
2023-02-06T15:25:57.428Z,101723.76
2023-02-06T15:28:29.963Z,101729.22
2023-02-06T15:30:59.985Z,101733.73
2023-02-06T15:33:33.183Z,101733.44
2023-02-06T15:36:03.284Z,101732.32
2023-02-06T15:38:33.033Z,101734.34
2023-02-06T15:41:03.784Z,101738.91
2023-02-06T15:43:32.076Z,101741.46
2023-02-06T15:46:03.008Z,101741.37
2023-02-06T15:48:38.691Z,101742.89
2023-02-06T15:51:25.206Z,101744.01
2023-02-06T16:09:02.962Z,101752.90
2023-02-06T16:22:30.484Z,101763.41
2023-02-06T16:25:18.044Z,101746.83
2023-02-06T16:27:48.828Z,101740.10
2023-02-06T16:30:26.573Z,101735.09
2023-02-06T16:33:01.609Z,101729.71
2023-02-06T16:35:35.952Z,101727.52
2023-02-06T16:38:09.330Z,101727.00
2023-02-06T16:40:40.395Z,101720.35
2023-02-06T16:43:12.267Z,101721.93
2023-02-06T16:45:41.940Z,101723.15
2023-02-06T16:48:18.351Z,101722.98
2023-02-06T16:50:49.602Z,101718.58
2023-02-06T16:53:25.323Z,101719.05
2023-02-06T16:55:55.026Z,101719.38
2023-02-06T16:58:24.372Z,101717.23
2023-02-06T17:00:53.119Z,101713.47
2023-02-06T17:03:20.766Z,101714.84
2023-02-06T17:05:49.760Z,101721.73
2023-02-06T17:08:19.907Z,101718.02
2023-02-06T17:10:53.699Z,101721.48
2023-02-06T17:13:23.721Z,101725.23
2023-02-06T17:15:58.030Z,101721.40
2023-02-06T17:18:34.150Z,101720.48
2023-02-06T17:21:12.444Z,101723.33
2023-02-06T17:23:43.430Z,101725.58
2023-02-06T17:26:17.474Z,101728.94
2023-02-06T17:28:48.018Z,101725.52
2023-02-06T17:31:24.817Z,101729.05
2023-02-06T17:33:57.897Z,101728.67
2023-02-06T17:36:41.388Z,101732.42
2023-02-06T17:39:13.992Z,101726.41
2023-02-06T17:41:41.836Z,101724.67
2023-02-06T17:44:09.401Z,101725.15
2023-02-06T17:46:37.918Z,101716.31
2023-02-06T17:49:05.120Z,101715.86
2023-02-06T17:51:33.849Z,101716.25
2023-02-06T17:54:01.921Z,101712.60
2023-02-06T17:56:33.309Z,101710.50
2023-02-06T17:59:02.689Z,101709.59
2023-02-06T18:01:31.400Z,101709.02
2023-02-06T18:04:04.836Z,101710.77
2023-02-06T18:06:36.493Z,101713.86
2023-02-06T18:09:05.364Z,101721.34
2023-02-06T18:11:38.074Z,101726.20
2023-02-06T18:14:19.714Z,101731.56
2023-02-06T18:16:51.139Z,101733.05
2023-02-06T18:19:47.279Z,101732.16
2023-02-06T18:22:25.313Z,101733.95
2023-02-06T18:24:55.451Z,101733.27
2023-02-06T18:27:24.193Z,101731.05
2023-02-06T18:29:55.506Z,101730.52
2023-02-06T18:32:23.011Z,101731.15
2023-02-06T18:34:53.590Z,101732.68
2023-02-06T18:37:21.632Z,101738.95
2023-02-06T18:39:48.757Z,101737.20
2023-02-06T18:42:38.118Z,101741.30
2023-02-06T18:45:06.830Z,101747.59
2023-02-06T18:47:35.424Z,101747.04
2023-02-06T18:50:03.858Z,101745.95
2023-02-06T18:52:32.600Z,101748.64
2023-02-06T18:55:00.513Z,101750.34
2023-02-06T18:57:30.211Z,101752.91
2023-02-06T18:59:59.050Z,101749.33
2023-02-06T19:02:27.751Z,101754.11
2023-02-06T19:04:58.705Z,101760.75
2023-02-06T19:07:28.508Z,101759.18
2023-02-06T19:10:00.325Z,101756.90
2023-02-06T19:12:30.665Z,101750.59
2023-02-06T19:14:58.366Z,101751.46
2023-02-06T19:17:26.853Z,101754.08
2023-02-06T19:19:58.615Z,101749.34
2023-02-06T19:22:26.124Z,101748.83
2023-02-06T19:24:54.004Z,101747.63
2023-02-06T19:27:26.840Z,101745.69
2023-02-06T19:29:55.502Z,101743.27
2023-02-06T19:32:22.395Z,101744.48
2023-02-06T19:34:49.444Z,101742.38
2023-02-06T19:37:17.554Z,101744.98
2023-02-06T19:39:47.942Z,101742.71
2023-02-06T19:42:19.820Z,101747.27
2023-02-06T19:44:54.753Z,101748.50
2023-02-06T19:47:24.119Z,101736.73
2023-02-06T19:49:52.553Z,101731.77
2023-02-06T19:52:20.349Z,101732.33
2023-02-06T19:54:49.334Z,101725.55
2023-02-06T19:57:49.069Z,101722.53
2023-02-06T20:00:23.107Z,101721.99
2023-02-06T20:02:53.102Z,101725.02
2023-02-06T20:05:27.245Z,101725.02
2023-02-06T20:07:57.643Z,101726.94
2023-02-06T20:10:29.766Z,101728.19
2023-02-06T20:13:00.810Z,101725.77
2023-02-06T20:15:32.174Z,101723.82
2023-02-06T20:18:05.266Z,101722.15
2023-02-06T20:20:36.119Z,101720.98
2023-02-06T20:23:04.406Z,101716.80
2023-02-06T20:25:38.388Z,101716.15
2023-02-06T20:28:08.140Z,101713.65
2023-02-06T20:30:39.531Z,101713.13
2023-02-06T20:33:16.628Z,101713.83
2023-02-06T20:35:46.330Z,101712.77
2023-02-06T20:38:16.436Z,101710.16
2023-02-06T20:40:52.507Z,101715.45
2023-02-06T20:43:19.698Z,101715.11
2023-02-06T20:45:47.007Z,101714.91
2023-02-06T20:48:20.911Z,101719.05
2023-02-06T20:50:59.970Z,101719.83
2023-02-06T20:53:39.217Z,101717.20
2023-02-06T20:56:16.994Z,101714.41
2023-02-06T20:58:56.655Z,101715.27
2023-02-06T21:04:38.264Z,101718.95
2023-02-06T21:07:21.889Z,101714.77
2023-02-06T21:10:00.532Z,101713.89
2023-02-06T21:18:42.244Z,101715.60
2023-02-06T21:21:15.195Z,101711.20
2023-02-06T21:23:47.273Z,101710.34
2023-02-06T21:26:18.345Z,101711.23
2023-02-06T21:28:48.536Z,101713.67
2023-02-06T21:31:37.739Z,101716.66
2023-02-06T21:34:13.041Z,101712.41
2023-02-06T21:36:45.055Z,101715.43
2023-02-06T21:39:26.224Z,101717.35
2023-02-06T21:42:28.686Z,101713.83
2023-02-06T21:44:56.729Z,101707.87
2023-02-06T21:47:56.415Z,101703.66
2023-02-06T21:50:29.835Z,101699.60
2023-02-06T21:53:02.316Z,101695.04
2023-02-06T21:55:33.102Z,101688.21
2023-02-06T21:58:02.533Z,101691.05
2023-02-06T22:00:38.314Z,101690.35
2023-02-06T22:03:10.298Z,101684.95
2023-02-06T22:05:40.771Z,101680.77
2023-02-06T22:08:09.215Z,101675.05
2023-02-06T22:10:41.988Z,101669.27
2023-02-06T22:13:16.223Z,101667.64
2023-02-06T22:15:48.002Z,101670.93
2023-02-06T22:18:15.492Z,101669.75
2023-02-06T22:20:43.244Z,101667.81
2023-02-06T22:23:10.994Z,101668.12
2023-02-06T22:25:39.029Z,101665.02
2023-02-06T22:28:09.610Z,101664.17
2023-02-06T22:30:36.796Z,101665.27
2023-02-06T22:33:06.748Z,101661.33
2023-02-06T22:35:39.970Z,101659.59
2023-02-06T22:38:08.049Z,101661.33
2023-02-06T22:40:36.920Z,101655.03
2023-02-06T22:43:04.568Z,101658.41
2023-02-06T22:45:35.221Z,101657.79
2023-02-06T22:48:05.051Z,101661.23
2023-02-06T22:50:35.894Z,101664.09
2023-02-06T22:53:27.514Z,101663.61
2023-02-06T22:56:16.588Z,101662.33
2023-02-06T22:58:48.145Z,101658.63
2023-02-06T23:01:19.947Z,101652.70
2023-02-06T23:06:35.715Z,101652.04
2023-02-06T23:09:04.311Z,101651.05
2023-02-06T23:11:36.880Z,101647.48
2023-02-06T23:14:07.364Z,101651.12
2023-02-06T23:16:39.496Z,101650.68
2023-02-06T23:19:13.677Z,101646.30
2023-02-06T23:21:55.348Z,101645.56
2023-02-06T23:24:28.332Z,101649.67
2023-02-06T23:26:55.977Z,101644.42
2023-02-06T23:29:26.225Z,101641.54
2023-02-06T23:31:58.399Z,101645.73
2023-02-06T23:34:27.714Z,101644.30
2023-02-06T23:36:56.436Z,101645.45
2023-02-06T23:39:38.511Z,101642.64
2023-02-06T23:42:07.257Z,101639.70
2023-02-06T23:44:37.142Z,101640.15
2023-02-06T23:47:12.176Z,101646.35
2023-02-06T23:52:35.189Z,101645.42
2023-02-06T23:58:02.637Z,101640.13
